Hunter, ND

5:52 AM CDT on September 16, 2014 (GMT -0500)
Home of the Absaraka Crows | Change Station
CLOSE
Current Station
Personal Weather Station
Location: Absaraka, ND
Elevation: 1066 ft
Nearby Weather Stations

Elev 1066 ft 46.98 °N, 97.39 °W | Updated 8 seconds ago

Clear
Clear
48.4 °F
Feels Like 47 °F
N
4.5
Wind Variable Wind from West
Gusts 5.4 mph

Today
High -- | Low -- °F
--% Chance of Precip.
Yesterday
High -- | Low -- °F
Precip. -- in
7:08 AM 7:39 PM
Waning Gibbous, 46% visible
Pressure 30.11 in
Visibility 10.0 miles
Clouds Clear
Windchill 47 °F
Dew Point 39 °F
Humidity 71%
Rainfall 0.00 in
Snow Depth Not available.
UV 0 out of 12
Pollen 3.40 out of 12
Air Quality Not available.
Flu Activity Not available.
METAR KFAR 160953Z 21008KT 10SM CLR 07/03 A3010 RMK AO2 SLP196 T00720033

More Conditions Fewer Conditions

Pressure 30.11 in
Visibility 10.0 miles
Clouds Clear
Windchill 47 °F
Dew Point 39 °F
Humidity 71%
Rainfall 0.00 in
Snow Depth Not available.
UV 0 out of 12
Pollen 3.40 out of 12
Air Quality Not available.
Flu Activity Not available.
METAR KFAR 160953Z 21008KT 10SM CLR 07/03 A3010 RMK AO2 SLP196 T00720033

More Conditions Fewer Conditions

10-Day Weather Forecast

Almanac

Astronomy

Sep. 16, 2014 Rise Set
Actual Time 7:08 AM CDT 7:39 PM CDT
Civil Twilight 6:37 AM CDT 8:09 PM CDT
Nautical Twilight 6:01 AM CDT 8:46 PM CDT
Astronomical Twilight 5:23 AM CDT 9:23 PM CDT
Moon 12:01 AM CDT 3:20 PM CDT
Length of Visible Light 13h 32m
Length of Day
12h 30m
Tomorrow will be 3m 21s shorter.
Waning Gibbous, 46% of the Moon is Illuminated
Today
Waning Gibbous
Sep 24
New
Oct 1
First Quarter
Oct 8
Full
Oct 15
Last Quarter

Today's Extremes

State Highs State Lows

Community

WunderPhotos

Upload Photos

1,753,720 photos uploaded!

WunderBlogs® & News

Nearby

Snow Depth

Station Depth Elevation
No new snow has been reported.

Earthquake Activity

City Distance Mag. Time & Date
No recent earthquake activity has been reported nearby.
Minimum magnitude displayed is 2.5.

Coastal Water Temperatures

Place Temperature
No Stations Reporting

Nearby Weather Stations